sensor_id;sensor_type;location;lat;lon;timestamp;temperature;humidity
36002;DHT22;22070;50.922;5.430;2022-09-27T00:00:59;9.90;99.90
36002;DHT22;22070;50.922;5.430;2022-09-27T00:03:25;9.90;99.90
36002;DHT22;22070;50.922;5.430;2022-09-27T00:06:09;9.90;99.90
36002;DHT22;22070;50.922;5.430;2022-09-27T00:08:36;10.00;99.90
36002;DHT22;22070;50.922;5.430;2022-09-27T00:11:09;9.90;99.90
36002;DHT22;22070;50.922;5.430;2022-09-27T00:13:37;9.90;99.90
36002;DHT22;22070;50.922;5.430;2022-09-27T00:16:03;9.90;99.90
36002;DHT22;22070;50.922;5.430;2022-09-27T00:18:30;9.90;99.90
36002;DHT22;22070;50.922;5.430;2022-09-27T00:20:56;9.90;99.90
36002;DHT22;22070;50.922;5.430;2022-09-27T00:23:28;9.90;99.90
36002;DHT22;22070;50.922;5.430;2022-09-27T00:25:55;9.80;99.90
36002;DHT22;22070;50.922;5.430;2022-09-27T00:28:21;9.80;99.90
36002;DHT22;22070;50.922;5.430;2022-09-27T00:30:47;9.80;99.90
36002;DHT22;22070;50.922;5.430;2022-09-27T00:33:12;9.80;99.90
36002;DHT22;22070;50.922;5.430;2022-09-27T00:35:38;9.90;99.90
36002;DHT22;22070;50.922;5.430;2022-09-27T00:38:03;9.90;99.90
36002;DHT22;22070;50.922;5.430;2022-09-27T00:40:29;9.90;99.90
36002;DHT22;22070;50.922;5.430;2022-09-27T00:42:55;9.80;99.90
36002;DHT22;22070;50.922;5.430;2022-09-27T00:45:20;9.80;99.90
36002;DHT22;22070;50.922;5.430;2022-09-27T00:47:55;9.80;99.90
36002;DHT22;22070;50.922;5.430;2022-09-27T00:50:39;9.80;99.90
36002;DHT22;22070;50.922;5.430;2022-09-27T00:56:01;9.80;99.90
36002;DHT22;22070;50.922;5.430;2022-09-27T00:58:35;9.80;99.90
36002;DHT22;22070;50.922;5.430;2022-09-27T01:01:05;9.80;99.90
36002;DHT22;22070;50.922;5.430;2022-09-27T01:03:51;9.80;99.90
36002;DHT22;22070;50.922;5.430;2022-09-27T01:06:20;9.80;99.90
36002;DHT22;22070;50.922;5.430;2022-09-27T01:08:47;9.80;99.90
36002;DHT22;22070;50.922;5.430;2022-09-27T01:22:10;9.70;99.90
36002;DHT22;22070;50.922;5.430;2022-09-27T01:30:20;9.60;99.90
36002;DHT22;22070;50.922;5.430;2022-09-27T01:32:55;9.60;99.90
36002;DHT22;22070;50.922;5.430;2022-09-27T01:40:44;9.50;99.90
36002;DHT22;22070;50.922;5.430;2022-09-27T01:43:20;9.60;99.90
36002;DHT22;22070;50.922;5.430;2022-09-27T01:46:04;9.50;99.90
36002;DHT22;22070;50.922;5.430;2022-09-27T01:48:36;9.50;99.90
36002;DHT22;22070;50.922;5.430;2022-09-27T01:51:07;9.50;99.90
36002;DHT22;22070;50.922;5.430;2022-09-27T01:53:39;9.50;99.90
36002;DHT22;22070;50.922;5.430;2022-09-27T01:56:10;9.50;99.90
36002;DHT22;22070;50.922;5.430;2022-09-27T01:58:45;9.40;99.90
36002;DHT22;22070;50.922;5.430;2022-09-27T02:01:14;9.40;99.90
36002;DHT22;22070;50.922;5.430;2022-09-27T02:03:45;9.40;99.90
36002;DHT22;22070;50.922;5.430;2022-09-27T02:06:18;9.40;99.90
36002;DHT22;22070;50.922;5.430;2022-09-27T02:11:29;9.30;99.90
36002;DHT22;22070;50.922;5.430;2022-09-27T02:14:32;9.30;99.90
36002;DHT22;22070;50.922;5.430;2022-09-27T02:22:29;9.40;99.90
36002;DHT22;22070;50.922;5.430;2022-09-27T02:25:16;9.40;99.90
36002;DHT22;22070;50.922;5.430;2022-09-27T02:30:16;9.30;99.90
36002;DHT22;22070;50.922;5.430;2022-09-27T02:32:42;9.30;99.90
36002;DHT22;22070;50.922;5.430;2022-09-27T02:37:37;9.30;99.90
36002;DHT22;22070;50.922;5.430;2022-09-27T02:40:03;9.30;99.90
36002;DHT22;22070;50.922;5.430;2022-09-27T02:42:29;9.30;99.90
36002;DHT22;22070;50.922;5.430;2022-09-27T02:44:56;9.30;99.90
36002;DHT22;22070;50.922;5.430;2022-09-27T02:52:41;9.30;99.90
36002;DHT22;22070;50.922;5.430;2022-09-27T02:55:23;9.40;99.90
36002;DHT22;22070;50.922;5.430;2022-09-27T03:03:54;9.30;99.90
36002;DHT22;22070;50.922;5.430;2022-09-27T03:06:24;9.30;99.90
36002;DHT22;22070;50.922;5.430;2022-09-27T03:08:50;9.30;99.90
36002;DHT22;22070;50.922;5.430;2022-09-27T03:11:16;9.30;99.90
36002;DHT22;22070;50.922;5.430;2022-09-27T03:13:43;9.30;99.90
36002;DHT22;22070;50.922;5.430;2022-09-27T03:16:09;9.30;99.90
36002;DHT22;22070;50.922;5.430;2022-09-27T03:18:34;9.30;99.90
36002;DHT22;22070;50.922;5.430;2022-09-27T03:21:00;9.30;99.90
36002;DHT22;22070;50.922;5.430;2022-09-27T03:23:26;9.30;99.90
36002;DHT22;22070;50.922;5.430;2022-09-27T03:25:52;9.30;99.90
36002;DHT22;22070;50.922;5.430;2022-09-27T03:28:18;9.30;99.90
36002;DHT22;22070;50.922;5.430;2022-09-27T03:30:45;9.20;99.90
36002;DHT22;22070;50.922;5.430;2022-09-27T03:33:11;9.30;99.90
36002;DHT22;22070;50.922;5.430;2022-09-27T03:35:37;9.30;99.90
36002;DHT22;22070;50.922;5.430;2022-09-27T03:38:04;9.30;99.90
36002;DHT22;22070;50.922;5.430;2022-09-27T03:40:29;9.20;99.90
36002;DHT22;22070;50.922;5.430;2022-09-27T03:42:55;9.20;99.90
36002;DHT22;22070;50.922;5.430;2022-09-27T03:45:21;9.20;99.90
36002;DHT22;22070;50.922;5.430;2022-09-27T03:47:47;9.10;99.90
36002;DHT22;22070;50.922;5.430;2022-09-27T03:50:13;9.10;99.90
36002;DHT22;22070;50.922;5.430;2022-09-27T03:52:38;9.10;99.90
36002;DHT22;22070;50.922;5.430;2022-09-27T03:55:05;9.10;99.90
36002;DHT22;22070;50.922;5.430;2022-09-27T03:57:31;9.10;99.90
36002;DHT22;22070;50.922;5.430;2022-09-27T03:59:57;9.10;99.90
36002;DHT22;22070;50.922;5.430;2022-09-27T04:02:25;9.10;99.90
36002;DHT22;22070;50.922;5.430;2022-09-27T04:04:50;9.10;99.90
36002;DHT22;22070;50.922;5.430;2022-09-27T04:07:16;9.00;99.90
36002;DHT22;22070;50.922;5.430;2022-09-27T04:09:42;9.10;99.90
36002;DHT22;22070;50.922;5.430;2022-09-27T04:12:09;9.10;99.90
36002;DHT22;22070;50.922;5.430;2022-09-27T04:14:34;9.10;99.90
36002;DHT22;22070;50.922;5.430;2022-09-27T04:17:00;9.10;99.90
36002;DHT22;22070;50.922;5.430;2022-09-27T04:19:26;9.10;99.90
36002;DHT22;22070;50.922;5.430;2022-09-27T04:21:52;9.10;99.90
36002;DHT22;22070;50.922;5.430;2022-09-27T04:24:17;9.00;99.90
36002;DHT22;22070;50.922;5.430;2022-09-27T04:26:43;9.00;99.90
36002;DHT22;22070;50.922;5.430;2022-09-27T04:29:08;9.00;99.90
36002;DHT22;22070;50.922;5.430;2022-09-27T04:31:35;8.90;99.90
36002;DHT22;22070;50.922;5.430;2022-09-27T04:34:05;8.90;99.90
36002;DHT22;22070;50.922;5.430;2022-09-27T04:36:31;8.90;99.90
36002;DHT22;22070;50.922;5.430;2022-09-27T04:39:00;8.90;99.90
36002;DHT22;22070;50.922;5.430;2022-09-27T04:41:27;8.90;99.90
36002;DHT22;22070;50.922;5.430;2022-09-27T04:43:54;8.90;99.90
36002;DHT22;22070;50.922;5.430;2022-09-27T04:46:20;8.80;99.90
36002;DHT22;22070;50.922;5.430;2022-09-27T04:48:46;8.80;99.90
36002;DHT22;22070;50.922;5.430;2022-09-27T04:51:13;8.80;99.90
36002;DHT22;22070;50.922;5.430;2022-09-27T04:53:44;8.80;99.90
36002;DHT22;22070;50.922;5.430;2022-09-27T04:56:13;8.70;99.90
36002;DHT22;22070;50.922;5.430;2022-09-27T04:58:40;8.80;99.90
36002;DHT22;22070;50.922;5.430;2022-09-27T05:01:07;8.80;99.90
36002;DHT22;22070;50.922;5.430;2022-09-27T05:03:33;8.80;99.90
36002;DHT22;22070;50.922;5.430;2022-09-27T05:05:59;8.80;99.90
36002;DHT22;22070;50.922;5.430;2022-09-27T05:08:26;8.80;99.90
36002;DHT22;22070;50.922;5.430;2022-09-27T05:10:52;8.70;99.90
36002;DHT22;22070;50.922;5.430;2022-09-27T05:13:18;8.70;99.90
36002;DHT22;22070;50.922;5.430;2022-09-27T05:15:44;8.70;99.90
36002;DHT22;22070;50.922;5.430;2022-09-27T05:18:10;8.80;99.90
36002;DHT22;22070;50.922;5.430;2022-09-27T05:20:36;8.70;99.90
36002;DHT22;22070;50.922;5.430;2022-09-27T05:23:02;8.70;99.90
36002;DHT22;22070;50.922;5.430;2022-09-27T05:25:29;8.80;99.90
36002;DHT22;22070;50.922;5.430;2022-09-27T05:27:56;8.70;99.90
36002;DHT22;22070;50.922;5.430;2022-09-27T05:30:23;8.70;99.90
36002;DHT22;22070;50.922;5.430;2022-09-27T05:32:49;8.70;99.90
36002;DHT22;22070;50.922;5.430;2022-09-27T05:35:15;8.70;99.90
36002;DHT22;22070;50.922;5.430;2022-09-27T05:37:50;8.80;99.90
36002;DHT22;22070;50.922;5.430;2022-09-27T05:40:16;8.80;99.90
36002;DHT22;22070;50.922;5.430;2022-09-27T05:42:42;8.80;99.90
36002;DHT22;22070;50.922;5.430;2022-09-27T05:45:08;8.80;99.90
36002;DHT22;22070;50.922;5.430;2022-09-27T05:47:33;8.90;99.90
36002;DHT22;22070;50.922;5.430;2022-09-27T05:49:59;8.90;99.90
36002;DHT22;22070;50.922;5.430;2022-09-27T05:52:25;8.80;99.90
36002;DHT22;22070;50.922;5.430;2022-09-27T05:54:50;8.80;99.90
36002;DHT22;22070;50.922;5.430;2022-09-27T05:57:16;8.80;99.90
36002;DHT22;22070;50.922;5.430;2022-09-27T05:59:42;8.80;99.90
36002;DHT22;22070;50.922;5.430;2022-09-27T06:02:10;8.80;99.90
36002;DHT22;22070;50.922;5.430;2022-09-27T06:04:35;8.80;99.90
36002;DHT22;22070;50.922;5.430;2022-09-27T06:07:01;8.80;99.90
36002;DHT22;22070;50.922;5.430;2022-09-27T06:09:27;8.80;99.90
36002;DHT22;22070;50.922;5.430;2022-09-27T06:11:53;8.80;99.90
36002;DHT22;22070;50.922;5.430;2022-09-27T06:14:18;8.80;99.90
36002;DHT22;22070;50.922;5.430;2022-09-27T06:16:44;8.90;99.90
36002;DHT22;22070;50.922;5.430;2022-09-27T06:19:10;8.90;99.90
36002;DHT22;22070;50.922;5.430;2022-09-27T06:21:36;8.90;99.90
36002;DHT22;22070;50.922;5.430;2022-09-27T06:24:02;8.90;99.90
36002;DHT22;22070;50.922;5.430;2022-09-27T06:26:28;8.90;99.90
36002;DHT22;22070;50.922;5.430;2022-09-27T06:28:54;8.90;99.90
36002;DHT22;22070;50.922;5.430;2022-09-27T06:31:20;9.00;99.90
36002;DHT22;22070;50.922;5.430;2022-09-27T06:33:46;9.00;99.90
36002;DHT22;22070;50.922;5.430;2022-09-27T06:36:13;9.10;99.90
36002;DHT22;22070;50.922;5.430;2022-09-27T06:38:39;9.10;99.90
36002;DHT22;22070;50.922;5.430;2022-09-27T06:41:05;9.20;99.90
36002;DHT22;22070;50.922;5.430;2022-09-27T06:43:37;9.20;99.90
36002;DHT22;22070;50.922;5.430;2022-09-27T06:46:03;9.20;99.90
36002;DHT22;22070;50.922;5.430;2022-09-27T06:48:30;9.20;99.90
36002;DHT22;22070;50.922;5.430;2022-09-27T06:50:57;9.20;99.90
36002;DHT22;22070;50.922;5.430;2022-09-27T06:53:24;9.20;99.90
36002;DHT22;22070;50.922;5.430;2022-09-27T06:55:50;9.20;99.90
36002;DHT22;22070;50.922;5.430;2022-09-27T06:58:16;9.30;99.90
36002;DHT22;22070;50.922;5.430;2022-09-27T07:01:01;9.30;99.90
36002;DHT22;22070;50.922;5.430;2022-09-27T07:03:28;9.30;99.90
36002;DHT22;22070;50.922;5.430;2022-09-27T07:06:03;9.30;99.90
36002;DHT22;22070;50.922;5.430;2022-09-27T07:08:30;9.40;99.90
36002;DHT22;22070;50.922;5.430;2022-09-27T07:11:04;9.40;99.90
36002;DHT22;22070;50.922;5.430;2022-09-27T07:13:30;9.50;99.90
36002;DHT22;22070;50.922;5.430;2022-09-27T07:16:01;9.60;99.90
36002;DHT22;22070;50.922;5.430;2022-09-27T07:18:27;9.50;99.90
36002;DHT22;22070;50.922;5.430;2022-09-27T07:20:53;9.60;99.90
36002;DHT22;22070;50.922;5.430;2022-09-27T07:23:19;9.70;99.90
36002;DHT22;22070;50.922;5.430;2022-09-27T07:25:46;9.80;99.90
36002;DHT22;22070;50.922;5.430;2022-09-27T07:28:16;9.80;99.90
36002;DHT22;22070;50.922;5.430;2022-09-27T07:30:43;9.90;99.90
36002;DHT22;22070;50.922;5.430;2022-09-27T07:33:09;10.00;99.90
36002;DHT22;22070;50.922;5.430;2022-09-27T07:35:37;9.90;99.90
36002;DHT22;22070;50.922;5.430;2022-09-27T07:38:05;9.90;99.90
36002;DHT22;22070;50.922;5.430;2022-09-27T07:40:33;9.90;99.90
36002;DHT22;22070;50.922;5.430;2022-09-27T07:43:00;9.90;99.90
36002;DHT22;22070;50.922;5.430;2022-09-27T07:45:25;9.90;99.90
36002;DHT22;22070;50.922;5.430;2022-09-27T07:47:51;9.90;99.90
36002;DHT22;22070;50.922;5.430;2022-09-27T07:50:17;9.90;99.90
36002;DHT22;22070;50.922;5.430;2022-09-27T07:52:45;9.80;99.90
36002;DHT22;22070;50.922;5.430;2022-09-27T07:55:13;9.90;99.90
36002;DHT22;22070;50.922;5.430;2022-09-27T07:57:39;9.90;99.90
36002;DHT22;22070;50.922;5.430;2022-09-27T08:00:08;9.90;99.90
36002;DHT22;22070;50.922;5.430;2022-09-27T08:02:34;9.90;99.90
36002;DHT22;22070;50.922;5.430;2022-09-27T08:04:59;10.00;99.90
36002;DHT22;22070;50.922;5.430;2022-09-27T08:07:26;10.00;99.90
36002;DHT22;22070;50.922;5.430;2022-09-27T08:09:52;10.40;99.90
36002;DHT22;22070;50.922;5.430;2022-09-27T08:12:18;10.40;99.90
36002;DHT22;22070;50.922;5.430;2022-09-27T08:14:46;10.30;99.90
36002;DHT22;22070;50.922;5.430;2022-09-27T08:17:12;10.40;99.90
36002;DHT22;22070;50.922;5.430;2022-09-27T08:19:38;10.40;99.90
36002;DHT22;22070;50.922;5.430;2022-09-27T08:22:04;10.30;99.90
36002;DHT22;22070;50.922;5.430;2022-09-27T08:24:29;10.30;99.90
36002;DHT22;22070;50.922;5.430;2022-09-27T08:26:55;10.20;99.90
36002;DHT22;22070;50.922;5.430;2022-09-27T08:29:20;10.30;99.90
36002;DHT22;22070;50.922;5.430;2022-09-27T08:31:46;10.30;99.90
36002;DHT22;22070;50.922;5.430;2022-09-27T08:34:12;10.20;99.90
36002;DHT22;22070;50.922;5.430;2022-09-27T08:36:38;10.10;99.90
36002;DHT22;22070;50.922;5.430;2022-09-27T08:39:04;10.10;99.90
36002;DHT22;22070;50.922;5.430;2022-09-27T08:44:18;10.30;99.90
36002;DHT22;22070;50.922;5.430;2022-09-27T08:47:01;10.40;99.90
36002;DHT22;22070;50.922;5.430;2022-09-27T08:49:41;10.50;99.90
36002;DHT22;22070;50.922;5.430;2022-09-27T08:52:16;10.60;99.90
36002;DHT22;22070;50.922;5.430;2022-09-27T08:54:42;10.70;99.90
36002;DHT22;22070;50.922;5.430;2022-09-27T08:57:10;10.80;99.90
36002;DHT22;22070;50.922;5.430;2022-09-27T08:59:44;10.70;99.90
36002;DHT22;22070;50.922;5.430;2022-09-27T09:02:17;10.80;99.90
36002;DHT22;22070;50.922;5.430;2022-09-27T09:04:45;10.80;99.90
36002;DHT22;22070;50.922;5.430;2022-09-27T09:10:15;10.90;99.90
36002;DHT22;22070;50.922;5.430;2022-09-27T09:22:28;10.70;99.90
36002;DHT22;22070;50.922;5.430;2022-09-27T09:30:22;10.90;99.90
36002;DHT22;22070;50.922;5.430;2022-09-27T09:35:18;11.10;99.90
36002;DHT22;22070;50.922;5.430;2022-09-27T09:37:53;11.10;99.90
36002;DHT22;22070;50.922;5.430;2022-09-27T09:40:43;11.30;99.90
36002;DHT22;22070;50.922;5.430;2022-09-27T09:43:20;11.60;99.90
36002;DHT22;22070;50.922;5.430;2022-09-27T09:51:21;11.40;99.90
36002;DHT22;22070;50.922;5.430;2022-09-27T09:56:46;11.40;99.90
36002;DHT22;22070;50.922;5.430;2022-09-27T09:59:25;11.40;99.90
36002;DHT22;22070;50.922;5.430;2022-09-27T10:01:53;11.60;99.90
36002;DHT22;22070;50.922;5.430;2022-09-27T10:04:24;11.80;99.90
36002;DHT22;22070;50.922;5.430;2022-09-27T10:06:51;11.90;99.90
36002;DHT22;22070;50.922;5.430;2022-09-27T10:09:22;12.00;99.90
36002;DHT22;22070;50.922;5.430;2022-09-27T10:11:48;11.70;99.90
36002;DHT22;22070;50.922;5.430;2022-09-27T10:14:16;11.70;99.90
36002;DHT22;22070;50.922;5.430;2022-09-27T10:16:46;11.60;99.90
36002;DHT22;22070;50.922;5.430;2022-09-27T10:19:15;11.60;99.90
36002;DHT22;22070;50.922;5.430;2022-09-27T10:21:44;11.40;99.90
36002;DHT22;22070;50.922;5.430;2022-09-27T10:24:16;11.60;99.90
36002;DHT22;22070;50.922;5.430;2022-09-27T10:26:45;11.50;99.90
36002;DHT22;22070;50.922;5.430;2022-09-27T10:29:21;11.30;99.90
36002;DHT22;22070;50.922;5.430;2022-09-27T10:31:48;11.10;99.90
36002;DHT22;22070;50.922;5.430;2022-09-27T10:34:34;11.00;99.90
36002;DHT22;22070;50.922;5.430;2022-09-27T10:37:13;10.90;99.90
36002;DHT22;22070;50.922;5.430;2022-09-27T10:39:43;10.90;99.90
36002;DHT22;22070;50.922;5.430;2022-09-27T10:42:22;11.10;99.90
36002;DHT22;22070;50.922;5.430;2022-09-27T10:44:48;11.10;99.90
36002;DHT22;22070;50.922;5.430;2022-09-27T10:47:18;10.90;99.90
36002;DHT22;22070;50.922;5.430;2022-09-27T10:49:48;10.90;99.90
36002;DHT22;22070;50.922;5.430;2022-09-27T10:52:18;10.90;99.90
36002;DHT22;22070;50.922;5.430;2022-09-27T10:55:07;10.70;99.90
36002;DHT22;22070;50.922;5.430;2022-09-27T10:57:46;10.60;99.90
36002;DHT22;22070;50.922;5.430;2022-09-27T11:00:25;10.60;99.90
36002;DHT22;22070;50.922;5.430;2022-09-27T11:02:55;10.60;99.90
36002;DHT22;22070;50.922;5.430;2022-09-27T11:07:57;10.80;99.90
36002;DHT22;22070;50.922;5.430;2022-09-27T11:10:29;10.80;99.90
36002;DHT22;22070;50.922;5.430;2022-09-27T11:13:16;10.90;99.90
36002;DHT22;22070;50.922;5.430;2022-09-27T11:27:00;10.70;99.90
36002;DHT22;22070;50.922;5.430;2022-09-27T11:29:50;10.50;99.90
36002;DHT22;22070;50.922;5.430;2022-09-27T11:35:50;10.30;99.90
36002;DHT22;22070;50.922;5.430;2022-09-27T11:43:30;10.60;99.90
36002;DHT22;22070;50.922;5.430;2022-09-27T11:46:23;10.80;99.90
36002;DHT22;22070;50.922;5.430;2022-09-27T11:57:05;11.90;99.90
36002;DHT22;22070;50.922;5.430;2022-09-27T12:10:45;12.80;99.90
36002;DHT22;22070;50.922;5.430;2022-09-27T12:13:13;12.70;99.90
36002;DHT22;22070;50.922;5.430;2022-09-27T12:15:43;12.50;99.90
36002;DHT22;22070;50.922;5.430;2022-09-27T12:20:45;12.70;99.90
36002;DHT22;22070;50.922;5.430;2022-09-27T12:23:19;12.70;99.90
36002;DHT22;22070;50.922;5.430;2022-09-27T12:25:49;12.60;99.90
36002;DHT22;22070;50.922;5.430;2022-09-27T12:30:51;12.70;99.90
36002;DHT22;22070;50.922;5.430;2022-09-27T12:33:36;12.90;99.90
36002;DHT22;22070;50.922;5.430;2022-09-27T12:36:07;12.90;99.90
36002;DHT22;22070;50.922;5.430;2022-09-27T12:39:08;12.90;99.90
36002;DHT22;22070;50.922;5.430;2022-09-27T12:41:40;13.00;99.90
36002;DHT22;22070;50.922;5.430;2022-09-27T12:44:09;12.90;99.90
36002;DHT22;22070;50.922;5.430;2022-09-27T12:47:19;12.50;99.90
36002;DHT22;22070;50.922;5.430;2022-09-27T12:52:34;12.10;99.90
36002;DHT22;22070;50.922;5.430;2022-09-27T12:55:46;10.30;99.90
36002;DHT22;22070;50.922;5.430;2022-09-27T13:09:35;8.50;99.90
36002;DHT22;22070;50.922;5.430;2022-09-27T13:15:02;8.70;99.90
36002;DHT22;22070;50.922;5.430;2022-09-27T13:17:33;8.80;99.90
36002;DHT22;22070;50.922;5.430;2022-09-27T13:20:35;9.10;99.90
36002;DHT22;22070;50.922;5.430;2022-09-27T13:31:15;10.40;99.90
36002;DHT22;22070;50.922;5.430;2022-09-27T13:33:53;10.90;99.90
36002;DHT22;22070;50.922;5.430;2022-09-27T13:36:28;11.20;99.90
36002;DHT22;22070;50.922;5.430;2022-09-27T13:46:52;11.90;99.90
36002;DHT22;22070;50.922;5.430;2022-09-27T13:49:20;12.20;99.90
36002;DHT22;22070;50.922;5.430;2022-09-27T13:51:52;12.40;99.90
36002;DHT22;22070;50.922;5.430;2022-09-27T13:54:51;12.70;99.90
36002;DHT22;22070;50.922;5.430;2022-09-27T13:57:39;13.10;99.90
36002;DHT22;22070;50.922;5.430;2022-09-27T14:00:53;13.70;99.90
36002;DHT22;22070;50.922;5.430;2022-09-27T14:03:21;14.20;99.90
36002;DHT22;22070;50.922;5.430;2022-09-27T14:05:57;14.50;99.90
36002;DHT22;22070;50.922;5.430;2022-09-27T14:08:36;14.40;99.90
36002;DHT22;22070;50.922;5.430;2022-09-27T14:11:11;14.20;99.90
36002;DHT22;22070;50.922;5.430;2022-09-27T14:13:37;14.20;99.90
36002;DHT22;22070;50.922;5.430;2022-09-27T14:16:04;14.20;99.90
36002;DHT22;22070;50.922;5.430;2022-09-27T14:18:32;13.90;99.90
36002;DHT22;22070;50.922;5.430;2022-09-27T14:27:03;14.10;99.90
36002;DHT22;22070;50.922;5.430;2022-09-27T14:29:31;14.20;99.90
36002;DHT22;22070;50.922;5.430;2022-09-27T14:32:07;14.50;99.90
36002;DHT22;22070;50.922;5.430;2022-09-27T14:34:34;14.80;99.90
36002;DHT22;22070;50.922;5.430;2022-09-27T14:36:59;14.20;99.90
36002;DHT22;22070;50.922;5.430;2022-09-27T14:39:44;14.00;99.90
36002;DHT22;22070;50.922;5.430;2022-09-27T14:42:19;12.90;99.90
36002;DHT22;22070;50.922;5.430;2022-09-27T14:44:46;12.20;99.90
36002;DHT22;22070;50.922;5.430;2022-09-27T14:47:16;11.90;99.90
36002;DHT22;22070;50.922;5.430;2022-09-27T14:49:57;11.70;99.90
36002;DHT22;22070;50.922;5.430;2022-09-27T14:52:30;11.60;99.90
36002;DHT22;22070;50.922;5.430;2022-09-27T14:55:22;11.50;99.90
36002;DHT22;22070;50.922;5.430;2022-09-27T14:57:51;11.50;99.90
36002;DHT22;22070;50.922;5.430;2022-09-27T15:00:23;11.40;99.90
36002;DHT22;22070;50.922;5.430;2022-09-27T15:02:52;11.40;99.90
36002;DHT22;22070;50.922;5.430;2022-09-27T15:05:28;11.40;99.90
36002;DHT22;22070;50.922;5.430;2022-09-27T15:07:56;11.30;99.90
36002;DHT22;22070;50.922;5.430;2022-09-27T15:10:26;11.30;99.90
36002;DHT22;22070;50.922;5.430;2022-09-27T15:12:54;11.30;99.90
36002;DHT22;22070;50.922;5.430;2022-09-27T15:15:25;11.50;99.90
36002;DHT22;22070;50.922;5.430;2022-09-27T15:17:51;11.50;99.90
36002;DHT22;22070;50.922;5.430;2022-09-27T15:22:50;11.50;99.90
36002;DHT22;22070;50.922;5.430;2022-09-27T15:27:53;11.80;99.90
36002;DHT22;22070;50.922;5.430;2022-09-27T15:30:24;11.90;99.90
36002;DHT22;22070;50.922;5.430;2022-09-27T15:32:53;11.90;99.90
36002;DHT22;22070;50.922;5.430;2022-09-27T15:35:38;11.90;99.90
36002;DHT22;22070;50.922;5.430;2022-09-27T15:38:26;12.00;99.90
36002;DHT22;22070;50.922;5.430;2022-09-27T15:46:08;11.80;99.90
36002;DHT22;22070;50.922;5.430;2022-09-27T15:49:17;11.90;99.90
36002;DHT22;22070;50.922;5.430;2022-09-27T15:51:51;12.00;99.90
36002;DHT22;22070;50.922;5.430;2022-09-27T15:54:22;12.10;99.90
36002;DHT22;22070;50.922;5.430;2022-09-27T15:56:50;12.10;99.90
36002;DHT22;22070;50.922;5.430;2022-09-27T15:59:30;12.00;99.90
36002;DHT22;22070;50.922;5.430;2022-09-27T16:01:58;12.00;99.90
36002;DHT22;22070;50.922;5.430;2022-09-27T16:04:24;12.20;99.90
36002;DHT22;22070;50.922;5.430;2022-09-27T16:06:51;12.40;99.90
36002;DHT22;22070;50.922;5.430;2022-09-27T16:09:19;12.40;99.90
36002;DHT22;22070;50.922;5.430;2022-09-27T16:11:46;12.30;99.90
36002;DHT22;22070;50.922;5.430;2022-09-27T16:14:12;12.20;99.90
36002;DHT22;22070;50.922;5.430;2022-09-27T16:16:42;12.10;99.90
36002;DHT22;22070;50.922;5.430;2022-09-27T16:19:08;11.90;99.90
36002;DHT22;22070;50.922;5.430;2022-09-27T16:21:34;11.90;99.90
36002;DHT22;22070;50.922;5.430;2022-09-27T16:24:00;11.80;99.90
36002;DHT22;22070;50.922;5.430;2022-09-27T16:26:28;11.80;99.90
36002;DHT22;22070;50.922;5.430;2022-09-27T16:28:53;11.70;99.90
36002;DHT22;22070;50.922;5.430;2022-09-27T16:31:20;11.70;99.90
36002;DHT22;22070;50.922;5.430;2022-09-27T16:33:48;11.70;99.90
36002;DHT22;22070;50.922;5.430;2022-09-27T16:36:15;11.60;99.90
36002;DHT22;22070;50.922;5.430;2022-09-27T16:38:50;11.60;99.90
36002;DHT22;22070;50.922;5.430;2022-09-27T16:41:17;11.90;99.90
36002;DHT22;22070;50.922;5.430;2022-09-27T16:43:44;11.50;99.90
36002;DHT22;22070;50.922;5.430;2022-09-27T16:46:11;11.30;99.90
36002;DHT22;22070;50.922;5.430;2022-09-27T16:48:40;11.10;99.90
36002;DHT22;22070;50.922;5.430;2022-09-27T16:51:18;11.00;99.90
36002;DHT22;22070;50.922;5.430;2022-09-27T16:54:03;11.00;99.90
36002;DHT22;22070;50.922;5.430;2022-09-27T16:56:30;11.00;99.90
36002;DHT22;22070;50.922;5.430;2022-09-27T16:58:57;10.90;99.90
36002;DHT22;22070;50.922;5.430;2022-09-27T17:01:23;10.90;99.90
36002;DHT22;22070;50.922;5.430;2022-09-27T17:03:50;10.80;99.90
36002;DHT22;22070;50.922;5.430;2022-09-27T17:06:17;10.70;99.90
36002;DHT22;22070;50.922;5.430;2022-09-27T17:08:44;10.60;99.90
36002;DHT22;22070;50.922;5.430;2022-09-27T17:11:14;10.40;99.90
36002;DHT22;22070;50.922;5.430;2022-09-27T17:13:41;10.40;99.90
36002;DHT22;22070;50.922;5.430;2022-09-27T17:16:07;10.30;99.90
36002;DHT22;22070;50.922;5.430;2022-09-27T17:18:33;10.30;99.90
36002;DHT22;22070;50.922;5.430;2022-09-27T17:21:00;10.30;99.90
36002;DHT22;22070;50.922;5.430;2022-09-27T17:23:26;10.30;99.90
36002;DHT22;22070;50.922;5.430;2022-09-27T17:25:52;10.30;99.90
36002;DHT22;22070;50.922;5.430;2022-09-27T17:28:21;10.30;99.90
36002;DHT22;22070;50.922;5.430;2022-09-27T17:30:47;10.30;99.90
36002;DHT22;22070;50.922;5.430;2022-09-27T17:33:12;10.30;99.90
36002;DHT22;22070;50.922;5.430;2022-09-27T17:35:38;10.30;99.90
36002;DHT22;22070;50.922;5.430;2022-09-27T17:38:03;10.20;99.90
36002;DHT22;22070;50.922;5.430;2022-09-27T17:40:29;10.20;99.90
36002;DHT22;22070;50.922;5.430;2022-09-27T17:42:55;10.20;99.90
36002;DHT22;22070;50.922;5.430;2022-09-27T17:45:22;10.30;99.90
36002;DHT22;22070;50.922;5.430;2022-09-27T17:47:48;10.20;99.90
36002;DHT22;22070;50.922;5.430;2022-09-27T17:50:32;10.10;99.90
36002;DHT22;22070;50.922;5.430;2022-09-27T17:52:57;10.20;99.90
36002;DHT22;22070;50.922;5.430;2022-09-27T17:55:23;10.20;99.90
36002;DHT22;22070;50.922;5.430;2022-09-27T17:57:50;10.10;99.90
36002;DHT22;22070;50.922;5.430;2022-09-27T18:00:17;10.10;99.90
36002;DHT22;22070;50.922;5.430;2022-09-27T18:02:42;10.10;99.90
36002;DHT22;22070;50.922;5.430;2022-09-27T18:05:09;10.10;99.90
36002;DHT22;22070;50.922;5.430;2022-09-27T18:07:35;10.10;99.90
36002;DHT22;22070;50.922;5.430;2022-09-27T18:10:02;10.00;99.90
36002;DHT22;22070;50.922;5.430;2022-09-27T18:12:28;10.10;99.90
36002;DHT22;22070;50.922;5.430;2022-09-27T18:14:57;10.00;99.90
36002;DHT22;22070;50.922;5.430;2022-09-27T18:17:23;10.10;99.90
36002;DHT22;22070;50.922;5.430;2022-09-27T18:19:49;10.10;99.90
36002;DHT22;22070;50.922;5.430;2022-09-27T18:22:15;10.10;99.90
36002;DHT22;22070;50.922;5.430;2022-09-27T18:24:40;10.00;99.90
36002;DHT22;22070;50.922;5.430;2022-09-27T18:27:06;10.00;99.90
36002;DHT22;22070;50.922;5.430;2022-09-27T18:29:31;10.00;99.90
36002;DHT22;22070;50.922;5.430;2022-09-27T18:31:57;10.00;99.90
36002;DHT22;22070;50.922;5.430;2022-09-27T18:34:23;10.00;99.90
36002;DHT22;22070;50.922;5.430;2022-09-27T18:36:51;10.00;99.90
36002;DHT22;22070;50.922;5.430;2022-09-27T18:39:17;10.00;99.90
36002;DHT22;22070;50.922;5.430;2022-09-27T18:41:44;9.90;99.90
36002;DHT22;22070;50.922;5.430;2022-09-27T18:44:13;10.00;99.90
36002;DHT22;22070;50.922;5.430;2022-09-27T18:46:39;10.10;99.90
36002;DHT22;22070;50.922;5.430;2022-09-27T18:49:07;10.10;99.90
36002;DHT22;22070;50.922;5.430;2022-09-27T18:51:33;10.10;99.90